createdAt,value
2018-02-10T00:00:45.656Z,14.70
2018-02-10T00:03:13.181Z,13.83
2018-02-10T00:05:40.646Z,14.67
2018-02-10T00:08:08.146Z,14.47
2018-02-10T00:10:36.391Z,14.27
2018-02-10T00:13:03.848Z,14.57
2018-02-10T00:15:31.350Z,14.57
2018-02-10T00:17:59.606Z,13.83
2018-02-10T00:20:27.090Z,15.20
2018-02-10T00:22:55.351Z,13.90
2018-02-10T00:25:23.624Z,14.20
2018-02-10T00:27:51.087Z,15.07
2018-02-10T00:30:19.374Z,15.50
2018-02-10T00:32:47.609Z,14.70
2018-02-10T00:35:15.075Z,14.37
2018-02-10T00:37:42.562Z,14.60
2018-02-10T00:40:10.005Z,15.43
2018-02-10T00:42:37.464Z,15.40
2018-02-10T00:45:04.920Z,16.77
2018-02-10T00:47:32.388Z,16.57
2018-02-10T00:50:00.778Z,15.50
2018-02-10T00:52:29.107Z,16.57
2018-02-10T00:54:56.604Z,15.47
2018-02-10T00:57:24.849Z,15.00
2018-02-10T00:59:52.314Z,15.40
2018-02-10T01:02:19.782Z,15.27
2018-02-10T01:04:47.256Z,16.83
2018-02-10T01:07:14.716Z,16.40
2018-02-10T01:09:42.174Z,16.07
2018-02-10T01:12:09.634Z,14.50
2018-02-10T01:14:37.077Z,16.43
2018-02-10T01:17:04.569Z,15.00
2018-02-10T01:19:32.788Z,14.63
2018-02-10T01:22:00.249Z,15.73
2018-02-10T01:24:27.703Z,15.73
2018-02-10T01:26:55.187Z,15.17
2018-02-10T01:29:22.651Z,16.43
2018-02-10T01:31:50.135Z,16.20
2018-02-10T01:34:17.642Z,14.80
2018-02-10T01:36:45.110Z,17.00
2018-02-10T01:39:12.590Z,14.27
2018-02-10T01:41:40.047Z,15.27
2018-02-10T01:44:09.542Z,15.30
2018-02-10T01:46:36.996Z,17.17
2018-02-10T01:49:04.476Z,16.00
2018-02-10T01:51:32.720Z,16.47
2018-02-10T01:54:00.160Z,16.87
2018-02-10T01:56:27.633Z,15.80
2018-02-10T01:58:55.090Z,15.70
2018-02-10T02:01:22.575Z,15.17
2018-02-10T02:03:50.032Z,15.10
2018-02-10T02:06:17.552Z,15.60
2018-02-10T02:08:45.716Z,15.37
2018-02-10T02:11:13.196Z,15.97
2018-02-10T02:13:40.679Z,15.50
2018-02-10T02:16:08.151Z,16.33
2018-02-10T02:18:36.412Z,15.03
2018-02-10T02:21:03.882Z,15.10
2018-02-10T02:23:31.327Z,15.40
2018-02-10T02:25:58.863Z,16.23
2018-02-10T02:28:26.320Z,16.60
2018-02-10T02:30:53.779Z,15.47
2018-02-10T02:33:21.235Z,16.40
2018-02-10T02:35:48.699Z,15.93
2018-02-10T02:38:16.144Z,16.20
2018-02-10T02:40:43.644Z,16.70
2018-02-10T02:43:11.095Z,16.00
2018-02-10T02:45:38.613Z,16.43
2018-02-10T02:48:06.101Z,16.57
2018-02-10T02:50:33.572Z,16.37
2018-02-10T02:53:01.057Z,17.80
2018-02-10T02:55:29.284Z,15.90
2018-02-10T02:57:56.773Z,16.30
2018-02-10T03:00:24.227Z,16.53
2018-02-10T03:02:51.689Z,16.07
2018-02-10T03:05:19.146Z,16.57
2018-02-10T03:07:46.593Z,18.03
2018-02-10T03:10:14.063Z,18.70
2018-02-10T03:12:41.519Z,17.23
2018-02-10T03:15:08.975Z,16.60
2018-02-10T03:17:36.439Z,18.33
2018-02-10T03:20:03.968Z,18.50
2018-02-10T03:22:31.428Z,18.10
2018-02-10T03:24:58.896Z,17.40
2018-02-10T03:27:26.363Z,17.20
2018-02-10T03:29:53.822Z,17.63
2018-02-10T03:32:21.279Z,18.63
2018-02-10T03:34:48.742Z,19.30
2018-02-10T03:37:16.215Z,18.47
2018-02-10T03:39:44.523Z,18.17
2018-02-10T03:42:11.994Z,17.70
2018-02-10T03:44:39.458Z,19.50
2018-02-10T03:47:06.945Z,18.33
2018-02-10T03:49:34.436Z,18.30
2018-02-10T03:52:02.675Z,20.50
2018-02-10T03:54:30.143Z,20.43
2018-02-10T03:56:57.603Z,20.30
2018-02-10T03:59:25.052Z,21.20
2018-02-10T04:01:52.520Z,20.60
2018-02-10T04:04:19.981Z,20.43
2018-02-10T04:06:47.522Z,21.60
2018-02-10T04:09:15.005Z,22.07
2018-02-10T04:11:43.247Z,21.70
2018-02-10T04:14:10.727Z,22.30
2018-02-10T04:16:38.190Z,21.17
2018-02-10T04:19:05.730Z,20.33
2018-02-10T04:21:33.286Z,21.50
2018-02-10T04:24:00.778Z,20.60
2018-02-10T04:26:28.239Z,21.20
2018-02-10T04:28:56.474Z,20.70
2018-02-10T04:31:23.946Z,20.40
2018-02-10T04:33:51.435Z,19.23
2018-02-10T04:36:19.696Z,18.80
2018-02-10T04:38:47.146Z,19.87
2018-02-10T04:41:14.614Z,21.13
2018-02-10T04:43:42.141Z,20.50
2018-02-10T04:46:09.608Z,22.07
2018-02-10T04:48:37.063Z,20.40
2018-02-10T04:51:04.604Z,22.50
2018-02-10T04:53:32.094Z,21.70
2018-02-10T04:55:59.668Z,21.67
2018-02-10T04:58:27.131Z,20.77
2018-02-10T05:00:54.605Z,20.87
2018-02-10T05:03:22.840Z,22.17
2018-02-10T05:05:51.137Z,22.00
2018-02-10T05:08:18.585Z,22.57
2018-02-10T05:10:46.030Z,22.33
2018-02-10T05:13:13.546Z,23.03
2018-02-10T05:15:40.988Z,22.60
2018-02-10T05:18:09.222Z,24.10
2018-02-10T05:20:36.689Z,23.33
2018-02-10T05:23:04.136Z,24.00
2018-02-10T05:25:31.587Z,24.10
2018-02-10T05:27:59.077Z,23.30
2018-02-10T05:30:26.549Z,24.67
2018-02-10T05:32:54.780Z,24.83
2018-02-10T05:35:22.251Z,24.80
2018-02-10T05:37:49.738Z,24.63
2018-02-10T05:40:17.195Z,24.80
2018-02-10T05:42:44.630Z,24.63
2018-02-10T05:45:12.156Z,26.10
2018-02-10T05:47:39.640Z,27.70
2018-02-10T05:50:07.106Z,26.03
2018-02-10T05:52:34.563Z,25.33
2018-02-10T05:55:02.031Z,27.80
2018-02-10T05:57:29.547Z,26.13
2018-02-10T05:59:57.004Z,27.33
2018-02-10T06:02:24.578Z,26.70
2018-02-10T06:04:52.082Z,26.33
2018-02-10T06:07:19.538Z,28.90
2018-02-10T06:09:47.191Z,26.93
2018-02-10T06:12:14.659Z,27.43
2018-02-10T06:14:42.164Z,23.90
2018-02-10T06:17:09.630Z,24.90
2018-02-10T06:19:37.108Z,25.80
2018-02-10T06:22:04.554Z,23.37
2018-02-10T06:24:32.019Z,25.73
2018-02-10T06:26:59.501Z,23.17
2018-02-10T06:29:26.973Z,20.67
2018-02-10T06:31:55.202Z,23.97
2018-02-10T06:34:22.679Z,24.10
2018-02-10T06:36:50.144Z,23.70
2018-02-10T06:39:17.692Z,24.73
2018-02-10T06:41:45.326Z,23.50
2018-02-10T06:44:12.787Z,24.50
2018-02-10T06:46:41.023Z,24.63
2018-02-10T06:49:09.267Z,24.40
2018-02-10T06:51:36.750Z,24.07
2018-02-10T06:54:04.213Z,22.93
2018-02-10T06:56:31.667Z,23.30
2018-02-10T06:58:59.135Z,22.47
2018-02-10T07:01:27.385Z,22.60
2018-02-10T07:03:54.887Z,21.37
2018-02-10T07:06:23.146Z,19.20
2018-02-10T07:08:51.383Z,22.83
2018-02-10T07:11:18.935Z,22.73
2018-02-10T07:13:46.801Z,22.23
2018-02-10T07:16:14.267Z,20.50
2018-02-10T07:18:41.772Z,21.07
2018-02-10T07:21:09.981Z,21.93
2018-02-10T07:23:37.505Z,19.13
2018-02-10T07:26:05.729Z,20.60
2018-02-10T07:28:33.192Z,19.20
2018-02-10T07:31:00.708Z,19.40
2018-02-10T07:33:28.939Z,20.50
2018-02-10T07:35:56.403Z,21.30
2018-02-10T07:38:24.846Z,20.17
2018-02-10T07:40:52.424Z,19.47
2018-02-10T07:43:19.888Z,17.90
2018-02-10T07:45:47.382Z,19.00
2018-02-10T07:48:14.840Z,18.77
2018-02-10T07:50:42.373Z,20.33
2018-02-10T07:53:09.870Z,21.83
2018-02-10T07:55:38.131Z,19.93
2018-02-10T07:58:05.597Z,19.67
2018-02-10T08:00:33.853Z,19.67
2018-02-10T08:03:01.335Z,20.53
2018-02-10T08:05:29.563Z,19.40
2018-02-10T08:07:57.035Z,18.90
2018-02-10T08:10:24.500Z,19.87
2018-02-10T08:12:51.956Z,17.47
2018-02-10T08:15:19.407Z,18.40
2018-02-10T08:17:46.894Z,19.93
2018-02-10T08:20:14.511Z,19.37
2018-02-10T08:22:42.001Z,18.53
2018-02-10T08:25:09.559Z,18.67
2018-02-10T08:27:37.052Z,17.43
2018-02-10T08:30:05.308Z,18.20
2018-02-10T08:32:32.763Z,18.93
2018-02-10T08:35:00.248Z,19.30
2018-02-10T08:37:28.502Z,19.00
2018-02-10T08:39:55.975Z,20.60
2018-02-10T08:42:24.200Z,18.40
2018-02-10T08:44:51.663Z,20.73
2018-02-10T08:47:19.155Z,18.60
2018-02-10T08:49:46.638Z,27.03
2018-02-10T08:52:14.875Z,19.37
2018-02-10T08:54:42.308Z,19.93
2018-02-10T08:57:09.792Z,18.90
2018-02-10T08:59:37.220Z,19.80
2018-02-10T09:02:04.714Z,20.53
2018-02-10T09:04:32.168Z,19.97
2018-02-10T09:06:59.654Z,19.20
2018-02-10T09:09:27.873Z,19.93
2018-02-10T09:11:55.357Z,21.93
2018-02-10T09:14:22.846Z,20.63
2018-02-10T09:16:51.107Z,18.47
2018-02-10T09:19:18.584Z,21.00
2018-02-10T09:21:46.834Z,20.87
2018-02-10T09:24:14.305Z,21.17
2018-02-10T09:26:41.756Z,18.30
2018-02-10T09:29:09.262Z,18.77
2018-02-10T09:31:36.771Z,17.70
2018-02-10T09:34:04.242Z,19.47
2018-02-10T09:36:31.765Z,19.23
2018-02-10T09:38:59.250Z,20.00
2018-02-10T09:41:26.741Z,18.80
2018-02-10T09:43:54.989Z,17.13
2018-02-10T09:46:22.473Z,16.80
2018-02-10T09:48:50.714Z,16.53
2018-02-10T09:51:18.189Z,16.77
2018-02-10T09:53:45.655Z,17.37
2018-02-10T09:56:13.904Z,16.53
2018-02-10T09:58:41.359Z,16.23
2018-02-10T10:01:08.845Z,16.27
2018-02-10T10:03:37.101Z,16.20
2018-02-10T10:06:04.574Z,16.53
2018-02-10T10:08:32.020Z,16.20
2018-02-10T10:10:59.495Z,15.10
2018-02-10T10:13:27.739Z,15.33
2018-02-10T10:15:55.222Z,16.13
2018-02-10T10:18:22.695Z,16.67
2018-02-10T10:20:50.927Z,15.50
2018-02-10T10:23:18.507Z,15.83
2018-02-10T10:25:46.024Z,13.97
2018-02-10T10:28:13.531Z,16.20
2018-02-10T10:30:41.301Z,15.53
2018-02-10T10:33:08.779Z,15.23
2018-02-10T10:35:37.011Z,15.20
2018-02-10T10:38:04.490Z,12.33
2018-02-10T10:40:32.155Z,14.70
2018-02-10T10:42:59.568Z,14.07
2018-02-10T10:45:27.094Z,15.37
2018-02-10T10:47:55.319Z,16.97
2018-02-10T10:50:22.801Z,15.87
2018-02-10T10:52:50.247Z,16.67
2018-02-10T10:55:17.716Z,16.20
2018-02-10T10:57:45.175Z,15.47
2018-02-10T11:00:12.866Z,16.03
2018-02-10T11:02:41.103Z,15.20
2018-02-10T11:05:08.572Z,14.80
2018-02-10T11:07:36.028Z,14.87
2018-02-10T11:10:04.328Z,15.00
2018-02-10T11:12:32.602Z,15.70
2018-02-10T11:15:00.815Z,15.80
2018-02-10T11:17:28.378Z,17.37
2018-02-10T11:19:55.862Z,15.27
2018-02-10T11:22:23.336Z,15.40
2018-02-10T11:24:51.013Z,15.30
2018-02-10T11:27:18.539Z,15.60
2018-02-10T11:29:46.007Z,15.37
2018-02-10T11:32:13.525Z,16.40
2018-02-10T11:34:40.999Z,15.60
2018-02-10T11:37:08.462Z,16.00
2018-02-10T11:39:35.990Z,16.63
2018-02-10T11:42:03.472Z,15.43
2018-02-10T11:44:31.078Z,15.73
2018-02-10T11:46:59.454Z,16.57
2018-02-10T11:49:26.911Z,17.10
2018-02-10T11:51:54.371Z,18.10
2018-02-10T11:54:21.841Z,19.30
2018-02-10T11:56:49.289Z,20.30
2018-02-10T11:59:17.535Z,17.90
2018-02-10T12:01:45.003Z,17.63
2018-02-10T12:04:12.448Z,17.50
2018-02-10T12:06:39.907Z,19.00
2018-02-10T12:09:07.387Z,18.87
2018-02-10T12:11:34.967Z,18.50
2018-02-10T12:14:03.224Z,18.70
2018-02-10T12:16:30.703Z,17.47
2018-02-10T12:18:58.982Z,18.70
2018-02-10T12:21:27.201Z,17.00
2018-02-10T12:23:54.686Z,19.37
2018-02-10T12:26:22.196Z,18.97
2018-02-10T12:28:49.695Z,18.87
2018-02-10T12:31:17.210Z,19.30
2018-02-10T12:33:46.863Z,21.70
2018-02-10T12:36:14.417Z,20.57
2018-02-10T12:38:41.861Z,19.77
2018-02-10T12:41:09.339Z,21.10
2018-02-10T12:43:36.826Z,20.10
2018-02-10T12:46:04.271Z,20.83
2018-02-10T12:48:37.379Z,20.70
2018-02-10T12:51:04.917Z,21.57
2018-02-10T12:53:32.337Z,21.03
2018-02-10T12:55:59.771Z,19.70
2018-02-10T12:58:28.105Z,21.37
2018-02-10T13:00:55.590Z,22.00
2018-02-10T13:03:23.148Z,21.00
2018-02-10T13:05:51.410Z,18.93
2018-02-10T13:08:18.928Z,19.03
2018-02-10T13:10:46.375Z,18.73
2018-02-10T13:13:14.594Z,20.43
2018-02-10T13:15:42.052Z,18.77
2018-02-10T13:18:09.550Z,16.67
2018-02-10T13:20:37.829Z,17.13
2018-02-10T13:23:06.084Z,19.73
2018-02-10T13:25:33.551Z,15.93
2018-02-10T13:28:01.031Z,16.50
2018-02-10T13:30:29.286Z,15.30
2018-02-10T13:32:56.764Z,15.73
2018-02-10T13:35:25.021Z,16.60
2018-02-10T13:37:52.540Z,15.30
2018-02-10T13:40:20.047Z,14.90
2018-02-10T13:42:48.327Z,15.70
2018-02-10T13:45:16.575Z,15.57
2018-02-10T13:47:44.124Z,14.30
2018-02-10T13:50:11.638Z,15.57
2018-02-10T13:52:39.091Z,15.87
2018-02-10T13:55:07.446Z,16.20
2018-02-10T13:57:34.912Z,14.40
2018-02-10T14:00:02.377Z,14.00
2018-02-10T14:02:30.663Z,14.80
2018-02-10T14:04:58.923Z,14.10
2018-02-10T14:07:26.555Z,14.70
2018-02-10T14:09:54.043Z,13.77
2018-02-10T14:12:21.500Z,13.83
2018-02-10T14:14:48.971Z,12.77
2018-02-10T14:17:17.294Z,13.67
2018-02-10T14:19:44.780Z,14.07
2018-02-10T14:22:12.255Z,13.90
2018-02-10T14:24:39.796Z,14.30
2018-02-10T14:27:07.272Z,16.50
2018-02-10T14:29:34.743Z,16.53
2018-02-10T14:32:02.991Z,16.80
2018-02-10T14:34:30.529Z,15.63
2018-02-10T14:36:57.985Z,15.20
2018-02-10T14:39:25.478Z,16.70
2018-02-10T14:41:52.943Z,16.70
2018-02-10T14:44:20.418Z,17.20
2018-02-10T14:46:48.828Z,16.53
2018-02-10T14:49:16.296Z,17.43
2018-02-10T14:51:43.771Z,16.53
2018-02-10T14:54:11.235Z,18.40
2018-02-10T14:56:38.730Z,17.80
2018-02-10T14:59:06.997Z,18.40
2018-02-10T15:01:34.554Z,16.10
2018-02-10T15:04:02.000Z,16.47
2018-02-10T15:06:30.187Z,15.53
2018-02-10T15:08:58.559Z,15.27
2018-02-10T15:11:26.418Z,16.70
2018-02-10T15:13:53.883Z,16.30
2018-02-10T15:16:21.648Z,15.60
2018-02-10T15:18:49.086Z,15.30
2018-02-10T15:21:16.596Z,14.53
2018-02-10T15:23:45.078Z,15.90
2018-02-10T15:26:14.387Z,16.17
2018-02-10T15:28:42.577Z,17.27
2018-02-10T15:31:21.991Z,15.90
2018-02-10T15:34:02.247Z,18.33
2018-02-10T15:36:30.048Z,16.73
2018-02-10T15:38:57.513Z,18.40
2018-02-10T15:41:24.979Z,19.10
2018-02-10T15:43:52.687Z,18.50
2018-02-10T15:46:21.218Z,19.77
2018-02-10T15:48:48.670Z,18.13
2018-02-10T15:51:16.155Z,17.43
2018-02-10T15:53:43.781Z,16.60
2018-02-10T15:56:11.257Z,19.67
2018-02-10T15:58:38.750Z,19.03
2018-02-10T16:01:06.228Z,17.67
2018-02-10T16:03:34.480Z,21.80
2018-02-10T16:06:01.991Z,20.47
2018-02-10T16:08:29.447Z,21.77
2018-02-10T16:10:57.020Z,21.50
2018-02-10T16:13:24.669Z,20.40
2018-02-10T16:15:52.110Z,20.13
2018-02-10T16:18:19.579Z,20.10
2018-02-10T16:20:47.044Z,22.60
2018-02-10T16:23:14.504Z,20.87
2018-02-10T16:25:41.971Z,23.83
2018-02-10T16:28:09.944Z,22.53
2018-02-10T16:30:37.540Z,21.97
2018-02-10T16:33:04.997Z,25.43
2018-02-10T16:35:32.511Z,21.90
2018-02-10T16:37:59.978Z,19.87
2018-02-10T16:40:27.468Z,23.80
2018-02-10T16:42:55.071Z,24.13
2018-02-10T16:45:22.573Z,22.20
2018-02-10T16:47:50.059Z,20.17
2018-02-10T16:50:17.532Z,18.10
2018-02-10T16:52:45.771Z,18.43
2018-02-10T16:55:13.466Z,18.47
2018-02-10T16:57:40.939Z,17.07
2018-02-10T17:00:09.184Z,19.53
2018-02-10T17:02:36.675Z,18.73
2018-02-10T17:05:04.671Z,18.10
2018-02-10T17:07:32.125Z,17.20
2018-02-10T17:09:59.631Z,17.90
2018-02-10T17:12:27.091Z,16.90
2018-02-10T17:14:54.652Z,17.30
2018-02-10T17:17:22.152Z,16.60
2018-02-10T17:19:49.729Z,17.07
2018-02-10T17:22:17.244Z,17.27
2018-02-10T17:24:45.479Z,17.57
2018-02-10T17:27:12.969Z,18.33
2018-02-10T17:29:41.959Z,16.13
2018-02-10T17:32:09.427Z,18.20
2018-02-10T17:34:37.024Z,18.00
2018-02-10T17:37:04.649Z,18.77
2018-02-10T17:39:32.112Z,19.50
2018-02-10T17:42:00.566Z,20.17
2018-02-10T17:44:28.019Z,19.50
2018-02-10T17:46:55.549Z,19.17
2018-02-10T17:49:23.216Z,19.50
2018-02-10T17:51:51.550Z,20.80
2018-02-10T17:54:19.800Z,22.03
2018-02-10T17:56:47.251Z,21.27
2018-02-10T17:59:14.889Z,22.33
2018-02-10T18:01:42.322Z,23.00
2018-02-10T18:04:10.545Z,23.87
2018-02-10T18:06:38.110Z,22.30
2018-02-10T18:09:05.593Z,22.00
2018-02-10T18:11:33.063Z,22.73
2018-02-10T18:14:01.303Z,23.27
2018-02-10T18:16:28.786Z,23.33
2018-02-10T18:18:56.297Z,22.60
2018-02-10T18:21:23.896Z,23.27
2018-02-10T18:23:51.375Z,21.57
2018-02-10T18:26:19.627Z,26.77
2018-02-10T18:28:47.862Z,24.30
2018-02-10T18:31:15.394Z,23.50
2018-02-10T18:33:43.774Z,22.33
2018-02-10T18:36:12.037Z,22.40
2018-02-10T18:38:39.699Z,20.47
2018-02-10T18:41:07.172Z,22.13
2018-02-10T18:43:35.415Z,20.23
2018-02-10T18:46:02.968Z,20.87
2018-02-10T18:48:30.907Z,21.43
2018-02-10T18:50:58.420Z,22.43
2018-02-10T18:53:26.671Z,21.87
2018-02-10T18:55:54.156Z,20.97
2018-02-10T18:58:21.612Z,20.93
2018-02-10T19:00:49.877Z,20.07
2018-02-10T19:03:17.580Z,18.40
2018-02-10T19:05:46.029Z,19.80
2018-02-10T19:08:13.572Z,19.23
2018-02-10T19:10:41.098Z,19.80
2018-02-10T19:13:08.782Z,19.30
2018-02-10T19:15:36.271Z,19.00
2018-02-10T19:18:03.786Z,19.30
2018-02-10T19:20:31.371Z,18.10
2018-02-10T19:22:58.889Z,18.87
2018-02-10T19:25:26.373Z,17.43
2018-02-10T19:27:53.875Z,17.27
2018-02-10T19:30:21.324Z,19.27
2018-02-10T19:32:48.819Z,16.83
2018-02-10T19:35:17.046Z,15.03
2018-02-10T19:37:44.685Z,16.57
2018-02-10T19:40:12.173Z,17.23
2018-02-10T19:42:39.645Z,17.47
2018-02-10T19:45:07.133Z,16.80
2018-02-10T19:47:35.392Z,16.03
2018-02-10T19:50:04.279Z,16.00
2018-02-10T19:52:32.870Z,14.97
2018-02-10T19:55:01.316Z,14.77
2018-02-10T19:57:29.083Z,16.33
2018-02-10T19:59:56.555Z,14.87
2018-02-10T20:02:24.070Z,13.00
2018-02-10T20:04:51.597Z,15.57
2018-02-10T20:07:19.817Z,14.27
2018-02-10T20:09:47.307Z,14.40
2018-02-10T20:12:14.766Z,13.90
2018-02-10T20:14:42.596Z,13.03
2018-02-10T20:17:10.186Z,12.60
2018-02-10T20:19:37.641Z,12.60
2018-02-10T20:22:05.116Z,27.40
2018-02-10T20:24:32.670Z,16.27
2018-02-10T20:27:00.600Z,13.90
2018-02-10T20:29:28.131Z,13.17
2018-02-10T20:31:56.385Z,12.70
2018-02-10T20:34:23.987Z,10.00
2018-02-10T20:36:51.458Z,11.07
2018-02-10T20:39:19.072Z,10.90
2018-02-10T20:41:47.314Z,11.37
2018-02-10T20:44:14.782Z,10.10
2018-02-10T20:46:42.281Z,10.73
2018-02-10T20:49:10.517Z,11.33
2018-02-10T20:51:38.040Z,10.60
2018-02-10T20:54:05.505Z,11.27
2018-02-10T20:56:32.994Z,10.47
2018-02-10T20:59:00.888Z,10.03
2018-02-10T21:01:28.503Z,10.20
2018-02-10T21:03:56.484Z,9.90
2018-02-10T21:06:24.149Z,9.90
2018-02-10T21:08:51.676Z,10.10
2018-02-10T21:11:19.287Z,9.30
2018-02-10T21:13:47.120Z,9.27
2018-02-10T21:16:14.619Z,9.30
2018-02-10T21:18:42.407Z,9.33
2018-02-10T21:21:10.702Z,8.90
2018-02-10T21:23:38.245Z,8.50
2018-02-10T21:26:05.832Z,9.20
2018-02-10T21:28:33.494Z,9.00
2018-02-10T21:31:01.090Z,9.13
2018-02-10T21:33:28.573Z,9.33
2018-02-10T21:35:56.827Z,8.30
2018-02-10T21:38:24.407Z,8.37
2018-02-10T21:40:51.888Z,9.67
2018-02-10T21:43:20.191Z,7.90
2018-02-10T21:45:47.752Z,8.03
2018-02-10T21:48:15.324Z,6.80
2018-02-10T21:50:42.869Z,7.30
2018-02-10T21:53:11.091Z,27.70
2018-02-10T21:55:38.547Z,6.50
2018-02-10T21:58:06.124Z,6.50
2018-02-10T22:00:34.411Z,6.50
2018-02-10T22:03:02.780Z,7.17
2018-02-10T22:05:30.342Z,6.63
2018-02-10T22:07:58.621Z,6.97
2018-02-10T22:10:26.990Z,7.00
2018-02-10T22:12:54.493Z,6.40
2018-02-10T22:15:21.988Z,6.10
2018-02-10T22:17:49.479Z,5.80
2018-02-10T22:20:17.890Z,5.97
2018-02-10T22:22:45.390Z,6.30
2018-02-10T22:25:12.959Z,5.83
2018-02-10T22:27:40.452Z,5.50
2018-02-10T22:30:07.960Z,5.80
2018-02-10T22:32:35.436Z,6.00
2018-02-10T22:35:03.274Z,5.60
2018-02-10T22:37:30.791Z,5.87
2018-02-10T22:39:59.289Z,5.20
2018-02-10T22:42:26.757Z,4.63
2018-02-10T22:44:54.392Z,5.00
2018-02-10T22:47:22.040Z,4.97
2018-02-10T22:49:49.741Z,5.57
2018-02-10T22:52:17.225Z,5.13
2018-02-10T22:54:44.925Z,5.40
2018-02-10T22:57:13.178Z,5.53
2018-02-10T22:59:40.643Z,5.20
2018-02-10T23:02:08.121Z,4.50
2018-02-10T23:04:36.381Z,5.10
2018-02-10T23:07:03.827Z,6.67
2018-02-10T23:09:31.660Z,6.40
2018-02-10T23:11:59.086Z,6.33
2018-02-10T23:14:27.323Z,5.90
2018-02-10T23:16:54.849Z,5.80
2018-02-10T23:19:22.359Z,6.30
2018-02-10T23:21:49.835Z,5.80
2018-02-10T23:24:18.078Z,4.67
2018-02-10T23:26:45.602Z,6.10
2018-02-10T23:29:13.091Z,5.70
2018-02-10T23:31:40.618Z,5.80
2018-02-10T23:34:08.090Z,4.70
2018-02-10T23:36:35.603Z,4.80
2018-02-10T23:39:03.983Z,5.97
2018-02-10T23:41:32.209Z,5.60
2018-02-10T23:43:59.689Z,5.20
2018-02-10T23:46:27.226Z,5.10
2018-02-10T23:48:54.732Z,5.20
2018-02-10T23:51:23.254Z,5.53
2018-02-10T23:53:51.734Z,4.93
2018-02-10T23:56:20.163Z,4.70
2018-02-10T23:58:49.357Z,4.80
